sensor_id;sensor_type;location;lat;lon;timestamp;pressure;altitude;pressure_sealevel;temperature;humidity
72921;BME280;61064;51.654;5.476;2023-02-08T00:01:10;103982.69;;;-0.43;77.74
72921;BME280;61064;51.654;5.476;2023-02-08T00:03:36;103979.16;;;-0.52;78.04
72921;BME280;61064;51.654;5.476;2023-02-08T00:06:03;103957.59;;;-0.67;77.75
72921;BME280;61064;51.654;5.476;2023-02-08T00:08:29;103990.22;;;-0.55;78.13
72921;BME280;61064;51.654;5.476;2023-02-08T00:10:55;103956.50;;;-0.77;77.93
72921;BME280;61064;51.654;5.476;2023-02-08T00:13:20;103981.75;;;-0.61;77.82
72921;BME280;61064;51.654;5.476;2023-02-08T00:15:46;103981.00;;;-0.68;78.02
72921;BME280;61064;51.654;5.476;2023-02-08T00:18:12;103969.44;;;-0.79;78.06
72921;BME280;61064;51.654;5.476;2023-02-08T00:20:38;103980.66;;;-0.80;78.27
72921;BME280;61064;51.654;5.476;2023-02-08T00:23:04;103985.72;;;-0.81;78.28
72921;BME280;61064;51.654;5.476;2023-02-08T00:25:30;103984.81;;;-0.91;78.21
72921;BME280;61064;51.654;5.476;2023-02-08T00:27:56;103990.78;;;-0.92;78.63
72921;BME280;61064;51.654;5.476;2023-02-08T00:30:21;103954.63;;;-1.13;78.43
72921;BME280;61064;51.654;5.476;2023-02-08T00:32:46;103976.44;;;-1.04;78.83
72921;BME280;61064;51.654;5.476;2023-02-08T00:35:12;103971.69;;;-1.08;78.66
72921;BME280;61064;51.654;5.476;2023-02-08T00:37:37;103944.88;;;-1.22;78.62
72921;BME280;61064;51.654;5.476;2023-02-08T00:40:03;103980.16;;;-1.02;78.83
72921;BME280;61064;51.654;5.476;2023-02-08T00:42:30;103955.66;;;-1.19;78.68
72921;BME280;61064;51.654;5.476;2023-02-08T00:44:56;103929.03;;;-1.33;78.73
72921;BME280;61064;51.654;5.476;2023-02-08T00:47:24;103973.84;;;-1.04;78.84
72921;BME280;61064;51.654;5.476;2023-02-08T00:49:50;103971.56;;;-1.01;78.86
72921;BME280;61064;51.654;5.476;2023-02-08T00:52:17;103974.59;;;-1.05;78.77
72921;BME280;61064;51.654;5.476;2023-02-08T00:54:43;103910.13;;;-1.39;78.67
72921;BME280;61064;51.654;5.476;2023-02-08T00:57:08;103917.19;;;-1.38;78.92
72921;BME280;61064;51.654;5.476;2023-02-08T00:59:34;103955.22;;;-1.15;78.70
72921;BME280;61064;51.654;5.476;2023-02-08T01:01:59;103956.44;;;-1.20;79.07
72921;BME280;61064;51.654;5.476;2023-02-08T01:04:25;103951.03;;;-1.22;78.68
72921;BME280;61064;51.654;5.476;2023-02-08T01:06:50;103954.56;;;-1.21;79.10
72921;BME280;61064;51.654;5.476;2023-02-08T01:09:16;103958.22;;;-1.28;78.83
72921;BME280;61064;51.654;5.476;2023-02-08T01:11:41;103895.31;;;-1.64;78.95
72921;BME280;61064;51.654;5.476;2023-02-08T01:14:07;103943.13;;;-1.39;78.66
72921;BME280;61064;51.654;5.476;2023-02-08T01:16:33;103964.25;;;-1.29;78.66
72921;BME280;61064;51.654;5.476;2023-02-08T01:19:00;103914.22;;;-1.58;78.93
72921;BME280;61064;51.654;5.476;2023-02-08T01:21:29;103963.63;;;-1.35;78.62
72921;BME280;61064;51.654;5.476;2023-02-08T01:23:55;103957.00;;;-1.40;78.75
72921;BME280;61064;51.654;5.476;2023-02-08T01:26:21;103963.00;;;-1.33;79.03
72921;BME280;61064;51.654;5.476;2023-02-08T01:28:47;103914.81;;;-1.60;78.69
72921;BME280;61064;51.654;5.476;2023-02-08T01:31:25;103962.69;;;-1.36;78.78
72921;BME280;61064;51.654;5.476;2023-02-08T01:33:52;103948.50;;;-1.46;78.66
72921;BME280;61064;51.654;5.476;2023-02-08T01:36:17;103944.34;;;-1.53;78.87
72921;BME280;61064;51.654;5.476;2023-02-08T01:38:43;103940.22;;;-1.51;78.74
72921;BME280;61064;51.654;5.476;2023-02-08T01:41:36;103962.50;;;-1.46;79.08
72921;BME280;61064;51.654;5.476;2023-02-08T01:46:43;103966.16;;;-1.52;79.09
72921;BME280;61064;51.654;5.476;2023-02-08T01:49:31;103967.84;;;-1.53;78.96
72921;BME280;61064;51.654;5.476;2023-02-08T01:52:03;103953.19;;;-1.68;78.59
72921;BME280;61064;51.654;5.476;2023-02-08T01:54:45;103933.63;;;-1.80;79.13
72921;BME280;61064;51.654;5.476;2023-02-08T01:57:13;103964.69;;;-1.66;79.06
72921;BME280;61064;51.654;5.476;2023-02-08T01:59:46;103943.59;;;-1.76;79.41
72921;BME280;61064;51.654;5.476;2023-02-08T02:02:15;103955.28;;;-1.73;79.12
72921;BME280;61064;51.654;5.476;2023-02-08T02:04:41;103952.06;;;-1.79;79.50
72921;BME280;61064;51.654;5.476;2023-02-08T02:07:08;103921.22;;;-1.98;79.21
72921;BME280;61064;51.654;5.476;2023-02-08T02:09:46;103946.19;;;-1.85;79.49
72921;BME280;61064;51.654;5.476;2023-02-08T02:12:15;103932.22;;;-1.85;79.43
72921;BME280;61064;51.654;5.476;2023-02-08T02:14:42;103950.34;;;-1.78;79.56
72921;BME280;61064;51.654;5.476;2023-02-08T02:17:11;103911.53;;;-1.99;79.53
72921;BME280;61064;51.654;5.476;2023-02-08T02:23:18;103946.03;;;-1.78;79.38
72921;BME280;61064;51.654;5.476;2023-02-08T02:35:12;103947.88;;;-1.85;79.26
72921;BME280;61064;51.654;5.476;2023-02-08T02:40:43;103923.09;;;-1.97;79.39
72921;BME280;61064;51.654;5.476;2023-02-08T02:43:27;103936.31;;;-1.96;79.24
72921;BME280;61064;51.654;5.476;2023-02-08T02:51:55;103939.31;;;-2.00;79.19
72921;BME280;61064;51.654;5.476;2023-02-08T02:54:27;103937.50;;;-2.01;79.25
72921;BME280;61064;51.654;5.476;2023-02-08T02:57:01;103917.94;;;-2.13;79.20
72921;BME280;61064;51.654;5.476;2023-02-08T02:59:34;103929.59;;;-2.10;79.46
72921;BME280;61064;51.654;5.476;2023-02-08T03:02:01;103933.44;;;-2.06;79.38
72921;BME280;61064;51.654;5.476;2023-02-08T03:12:57;103926.41;;;-2.07;79.51
72921;BME280;61064;51.654;5.476;2023-02-08T03:20:37;103930.56;;;-2.00;79.33
72921;BME280;61064;51.654;5.476;2023-02-08T03:23:18;103914.88;;;-2.09;79.14
72921;BME280;61064;51.654;5.476;2023-02-08T03:26:06;103927.38;;;-1.98;79.24
72921;BME280;61064;51.654;5.476;2023-02-08T03:28:54;103937.97;;;-1.96;79.41
72921;BME280;61064;51.654;5.476;2023-02-08T03:33:59;103898.75;;;-2.14;79.34
72921;BME280;61064;51.654;5.476;2023-02-08T03:36:44;103920.91;;;-2.01;79.07
72921;BME280;61064;51.654;5.476;2023-02-08T03:39:14;103906.31;;;-2.08;79.30
72921;BME280;61064;51.654;5.476;2023-02-08T03:41:43;103915.19;;;-2.06;79.03
72921;BME280;61064;51.654;5.476;2023-02-08T03:44:23;103924.47;;;-2.01;79.19
72921;BME280;61064;51.654;5.476;2023-02-08T03:46:59;103900.97;;;-2.25;78.94
72921;BME280;61064;51.654;5.476;2023-02-08T03:49:30;103910.03;;;-2.22;79.41
72921;BME280;61064;51.654;5.476;2023-02-08T03:52:00;103922.66;;;-2.18;79.59
72921;BME280;61064;51.654;5.476;2023-02-08T03:54:30;103935.09;;;-2.15;79.28
72921;BME280;61064;51.654;5.476;2023-02-08T03:57:16;103942.47;;;-2.11;79.59
72921;BME280;61064;51.654;5.476;2023-02-08T03:59:47;103924.44;;;-2.25;79.33
72921;BME280;61064;51.654;5.476;2023-02-08T04:02:17;103882.38;;;-2.53;79.23
72921;BME280;61064;51.654;5.476;2023-02-08T04:04:46;103891.63;;;-2.47;79.54
72921;BME280;61064;51.654;5.476;2023-02-08T04:07:13;103915.00;;;-2.40;79.64
72921;BME280;61064;51.654;5.476;2023-02-08T04:09:40;103937.00;;;-2.30;79.75
72921;BME280;61064;51.654;5.476;2023-02-08T04:12:06;103931.28;;;-2.34;79.58
72921;BME280;61064;51.654;5.476;2023-02-08T04:14:31;103909.69;;;-2.49;79.60
72921;BME280;61064;51.654;5.476;2023-02-08T04:16:57;103921.72;;;-2.42;79.58
72921;BME280;61064;51.654;5.476;2023-02-08T04:19:22;103930.94;;;-2.37;79.72
72921;BME280;61064;51.654;5.476;2023-02-08T04:21:48;103901.97;;;-2.56;79.81
72921;BME280;61064;51.654;5.476;2023-02-08T04:24:13;103900.16;;;-2.57;79.85
72921;BME280;61064;51.654;5.476;2023-02-08T04:26:38;103926.75;;;-2.44;79.67
72921;BME280;61064;51.654;5.476;2023-02-08T04:29:04;103934.75;;;-2.42;79.58
72921;BME280;61064;51.654;5.476;2023-02-08T04:31:30;103938.78;;;-2.37;79.46
72921;BME280;61064;51.654;5.476;2023-02-08T04:33:55;103893.00;;;-2.67;79.75
72921;BME280;61064;51.654;5.476;2023-02-08T04:36:20;103930.09;;;-2.45;80.05
72921;BME280;61064;51.654;5.476;2023-02-08T04:38:46;103897.81;;;-2.63;79.71
72921;BME280;61064;51.654;5.476;2023-02-08T04:41:11;103917.03;;;-2.54;79.81
72921;BME280;61064;51.654;5.476;2023-02-08T04:43:37;103928.69;;;-2.50;79.85
72921;BME280;61064;51.654;5.476;2023-02-08T04:46:02;103936.25;;;-2.44;79.58
72921;BME280;61064;51.654;5.476;2023-02-08T04:48:28;103924.09;;;-2.53;79.87
72921;BME280;61064;51.654;5.476;2023-02-08T04:50:56;103907.44;;;-2.62;79.63
72921;BME280;61064;51.654;5.476;2023-02-08T04:53:24;103892.50;;;-2.71;79.54
72921;BME280;61064;51.654;5.476;2023-02-08T04:55:53;103879.25;;;-2.81;79.53
72921;BME280;61064;51.654;5.476;2023-02-08T04:58:18;103937.44;;;-2.49;80.15
72921;BME280;61064;51.654;5.476;2023-02-08T05:00:44;103862.28;;;-2.94;79.78
72921;BME280;61064;51.654;5.476;2023-02-08T05:03:10;103865.38;;;-2.89;79.57
72921;BME280;61064;51.654;5.476;2023-02-08T05:05:36;103827.34;;;-3.11;79.49
72921;BME280;61064;51.654;5.476;2023-02-08T05:08:02;103890.66;;;-2.72;79.74
72921;BME280;61064;51.654;5.476;2023-02-08T05:10:28;103841.69;;;-2.99;79.55
72921;BME280;61064;51.654;5.476;2023-02-08T05:12:53;103911.31;;;-2.58;79.73
72921;BME280;61064;51.654;5.476;2023-02-08T05:15:19;103895.72;;;-2.74;79.59
72921;BME280;61064;51.654;5.476;2023-02-08T05:17:44;103895.84;;;-2.72;79.69
72921;BME280;61064;51.654;5.476;2023-02-08T05:20:10;103868.59;;;-2.91;79.82
72921;BME280;61064;51.654;5.476;2023-02-08T05:22:36;103891.69;;;-2.79;79.69
72921;BME280;61064;51.654;5.476;2023-02-08T05:25:02;103926.22;;;-2.57;79.89
72921;BME280;61064;51.654;5.476;2023-02-08T05:27:27;103894.53;;;-2.69;79.82
72921;BME280;61064;51.654;5.476;2023-02-08T05:29:53;103872.78;;;-2.85;79.61
72921;BME280;61064;51.654;5.476;2023-02-08T05:32:18;103906.94;;;-2.66;79.79
72921;BME280;61064;51.654;5.476;2023-02-08T05:34:44;103869.66;;;-2.89;79.82
72921;BME280;61064;51.654;5.476;2023-02-08T05:37:09;103902.34;;;-2.69;79.81
72921;BME280;61064;51.654;5.476;2023-02-08T05:39:34;103855.22;;;-2.95;79.72
72921;BME280;61064;51.654;5.476;2023-02-08T05:42:00;103895.28;;;-2.70;79.53
72921;BME280;61064;51.654;5.476;2023-02-08T05:44:25;103905.94;;;-2.60;80.04
72921;BME280;61064;51.654;5.476;2023-02-08T05:46:51;103832.56;;;-2.96;79.75
72921;BME280;61064;51.654;5.476;2023-02-08T05:49:16;103893.34;;;-2.64;79.82
72921;BME280;61064;51.654;5.476;2023-02-08T05:51:42;103821.56;;;-3.09;79.82
72921;BME280;61064;51.654;5.476;2023-02-08T05:54:09;103808.34;;;-3.10;79.89
72921;BME280;61064;51.654;5.476;2023-02-08T05:56:35;103841.78;;;-2.90;79.83
72921;BME280;61064;51.654;5.476;2023-02-08T05:59:01;103792.91;;;-3.09;79.83
72921;BME280;61064;51.654;5.476;2023-02-08T06:01:26;103809.19;;;-3.03;79.56
72921;BME280;61064;51.654;5.476;2023-02-08T06:03:52;103899.88;;;-2.52;79.82
72921;BME280;61064;51.654;5.476;2023-02-08T06:06:18;103888.63;;;-2.59;79.80
72921;BME280;61064;51.654;5.476;2023-02-08T06:08:44;103923.06;;;-2.46;79.60
72921;BME280;61064;51.654;5.476;2023-02-08T06:11:10;103844.38;;;-2.90;79.82
72921;BME280;61064;51.654;5.476;2023-02-08T06:13:35;103917.06;;;-2.45;79.90
72921;BME280;61064;51.654;5.476;2023-02-08T06:16:01;103918.34;;;-2.41;79.71
72921;BME280;61064;51.654;5.476;2023-02-08T06:18:26;103910.97;;;-2.45;79.86
72921;BME280;61064;51.654;5.476;2023-02-08T06:20:52;103903.06;;;-2.54;79.81
72921;BME280;61064;51.654;5.476;2023-02-08T06:23:19;103915.75;;;-2.41;79.64
72921;BME280;61064;51.654;5.476;2023-02-08T06:25:44;103915.00;;;-2.40;79.79
72921;BME280;61064;51.654;5.476;2023-02-08T06:28:09;103904.66;;;-2.47;79.96
72921;BME280;61064;51.654;5.476;2023-02-08T06:30:36;103900.19;;;-2.48;80.03
72921;BME280;61064;51.654;5.476;2023-02-08T06:33:02;103869.44;;;-2.60;79.72
72921;BME280;61064;51.654;5.476;2023-02-08T06:35:27;103893.47;;;-2.46;79.82
72921;BME280;61064;51.654;5.476;2023-02-08T06:37:53;103902.88;;;-2.40;79.70
72921;BME280;61064;51.654;5.476;2023-02-08T06:40:19;103908.50;;;-2.44;79.82
72921;BME280;61064;51.654;5.476;2023-02-08T06:42:48;103909.16;;;-2.38;79.72
72921;BME280;61064;51.654;5.476;2023-02-08T06:45:14;103878.09;;;-2.52;79.55
72921;BME280;61064;51.654;5.476;2023-02-08T06:47:40;103907.66;;;-2.36;79.51
72921;BME280;61064;51.654;5.476;2023-02-08T06:50:05;103917.91;;;-2.37;79.80
72921;BME280;61064;51.654;5.476;2023-02-08T06:52:31;103878.50;;;-2.56;79.51
72921;BME280;61064;51.654;5.476;2023-02-08T06:54:56;103889.75;;;-2.48;79.79
72921;BME280;61064;51.654;5.476;2023-02-08T06:57:22;103890.69;;;-2.48;79.69
72921;BME280;61064;51.654;5.476;2023-02-08T06:59:47;103893.97;;;-2.42;79.83
72921;BME280;61064;51.654;5.476;2023-02-08T07:02:15;103908.13;;;-2.31;79.60
72921;BME280;61064;51.654;5.476;2023-02-08T07:04:41;103875.81;;;-2.49;79.73
72921;BME280;61064;51.654;5.476;2023-02-08T07:07:07;103876.91;;;-2.47;79.52
72921;BME280;61064;51.654;5.476;2023-02-08T07:09:34;103908.44;;;-2.28;79.75
72921;BME280;61064;51.654;5.476;2023-02-08T07:11:59;103910.16;;;-2.29;79.79
72921;BME280;61064;51.654;5.476;2023-02-08T07:14:32;103898.16;;;-2.35;79.78
72921;BME280;61064;51.654;5.476;2023-02-08T07:16:58;103920.31;;;-2.23;79.63
72921;BME280;61064;51.654;5.476;2023-02-08T07:19:24;103894.78;;;-2.34;79.49
72921;BME280;61064;51.654;5.476;2023-02-08T07:21:50;103908.63;;;-2.27;79.42
72921;BME280;61064;51.654;5.476;2023-02-08T07:24:15;103906.78;;;-2.28;79.66
72921;BME280;61064;51.654;5.476;2023-02-08T07:26:41;103900.63;;;-2.28;79.61
72921;BME280;61064;51.654;5.476;2023-02-08T07:29:06;103889.88;;;-2.31;79.45
72921;BME280;61064;51.654;5.476;2023-02-08T07:31:31;103888.78;;;-2.33;79.69
72921;BME280;61064;51.654;5.476;2023-02-08T07:33:58;103912.06;;;-2.19;79.41
72921;BME280;61064;51.654;5.476;2023-02-08T07:36:23;103890.38;;;-2.27;79.51
72921;BME280;61064;51.654;5.476;2023-02-08T07:38:48;103876.84;;;-2.31;79.43
72921;BME280;61064;51.654;5.476;2023-02-08T07:41:14;103888.09;;;-2.24;79.39
72921;BME280;61064;51.654;5.476;2023-02-08T07:43:39;103895.66;;;-2.18;79.63
72921;BME280;61064;51.654;5.476;2023-02-08T07:46:14;103844.25;;;-2.43;79.40
72921;BME280;61064;51.654;5.476;2023-02-08T07:48:40;103902.16;;;-2.06;79.43
72921;BME280;61064;51.654;5.476;2023-02-08T07:51:06;103904.44;;;-2.09;79.49
72921;BME280;61064;51.654;5.476;2023-02-08T07:53:32;103894.00;;;-2.09;79.34
72921;BME280;61064;51.654;5.476;2023-02-08T07:55:58;103916.94;;;-1.98;79.53
72921;BME280;61064;51.654;5.476;2023-02-08T07:58:24;103909.41;;;-1.95;79.69
72921;BME280;61064;51.654;5.476;2023-02-08T08:00:49;103888.25;;;-1.98;79.46
72921;BME280;61064;51.654;5.476;2023-02-08T08:03:15;103866.25;;;-2.08;79.25
72921;BME280;61064;51.654;5.476;2023-02-08T08:05:40;103900.91;;;-1.85;79.51
72921;BME280;61064;51.654;5.476;2023-02-08T08:08:10;103884.91;;;-1.88;79.26
72921;BME280;61064;51.654;5.476;2023-02-08T08:10:36;103896.16;;;-1.81;79.47
72921;BME280;61064;51.654;5.476;2023-02-08T08:13:02;103888.78;;;-1.85;79.45
72921;BME280;61064;51.654;5.476;2023-02-08T08:15:27;103847.38;;;-2.06;79.24
72921;BME280;61064;51.654;5.476;2023-02-08T08:17:53;103907.72;;;-1.70;79.23
72921;BME280;61064;51.654;5.476;2023-02-08T08:20:18;103904.66;;;-1.66;79.12
72921;BME280;61064;51.654;5.476;2023-02-08T08:22:44;103862.50;;;-1.86;79.11
72921;BME280;61064;51.654;5.476;2023-02-08T08:25:09;103905.94;;;-1.54;78.90
72921;BME280;61064;51.654;5.476;2023-02-08T08:27:35;103903.66;;;-1.42;79.29
72921;BME280;61064;51.654;5.476;2023-02-08T08:30:00;103892.75;;;-1.38;79.17
72921;BME280;61064;51.654;5.476;2023-02-08T08:32:26;103900.47;;;-1.22;79.10
72921;BME280;61064;51.654;5.476;2023-02-08T08:34:52;103842.38;;;-1.37;78.84
72921;BME280;61064;51.654;5.476;2023-02-08T08:37:17;103868.84;;;-1.17;78.96
72921;BME280;61064;51.654;5.476;2023-02-08T08:39:43;103841.78;;;-1.26;78.84
72921;BME280;61064;51.654;5.476;2023-02-08T08:42:08;103892.22;;;-0.93;78.64
72921;BME280;61064;51.654;5.476;2023-02-08T08:44:34;103845.50;;;-1.07;78.71
72921;BME280;61064;51.654;5.476;2023-02-08T08:46:59;103842.75;;;-1.08;78.71
72921;BME280;61064;51.654;5.476;2023-02-08T08:49:26;103870.13;;;-0.79;78.79
72921;BME280;61064;51.654;5.476;2023-02-08T08:51:52;103849.03;;;-0.80;78.69
72921;BME280;61064;51.654;5.476;2023-02-08T08:54:18;103856.88;;;-0.63;78.42
72921;BME280;61064;51.654;5.476;2023-02-08T08:56:44;103885.00;;;-0.44;78.14
72921;BME280;61064;51.654;5.476;2023-02-08T08:59:10;103846.72;;;-0.60;78.03
72921;BME280;61064;51.654;5.476;2023-02-08T09:01:35;103789.84;;;-0.80;77.96
72921;BME280;61064;51.654;5.476;2023-02-08T09:04:01;103803.66;;;-0.64;77.61
72921;BME280;61064;51.654;5.476;2023-02-08T09:06:26;103826.84;;;-0.50;78.13
72921;BME280;61064;51.654;5.476;2023-02-08T09:08:51;103864.97;;;-0.26;78.09
72921;BME280;61064;51.654;5.476;2023-02-08T09:11:17;103881.41;;;-0.18;77.98
72921;BME280;61064;51.654;5.476;2023-02-08T09:13:42;103889.22;;;-0.10;78.00
72921;BME280;61064;51.654;5.476;2023-02-08T09:16:14;103885.38;;;-0.05;77.92
72921;BME280;61064;51.654;5.476;2023-02-08T09:18:40;103860.28;;;-0.11;78.05
72921;BME280;61064;51.654;5.476;2023-02-08T09:21:13;103868.72;;;0.04;78.03
72921;BME280;61064;51.654;5.476;2023-02-08T09:23:39;103849.97;;;-0.01;77.71
72921;BME280;61064;51.654;5.476;2023-02-08T09:26:07;103861.75;;;0.13;77.63
72921;BME280;61064;51.654;5.476;2023-02-08T09:28:33;103860.03;;;0.22;77.41
72921;BME280;61064;51.654;5.476;2023-02-08T09:30:58;103821.63;;;0.04;77.55
72921;BME280;61064;51.654;5.476;2023-02-08T09:33:26;103831.41;;;0.15;77.59
72921;BME280;61064;51.654;5.476;2023-02-08T09:35:51;103848.75;;;0.31;77.29
72921;BME280;61064;51.654;5.476;2023-02-08T09:38:17;103865.00;;;0.46;77.04
72921;BME280;61064;51.654;5.476;2023-02-08T09:43:21;103872.91;;;0.65;76.83
72921;BME280;61064;51.654;5.476;2023-02-08T09:45:59;103859.81;;;0.65;76.76
72921;BME280;61064;51.654;5.476;2023-02-08T09:48:32;103869.44;;;0.74;76.73
72921;BME280;61064;51.654;5.476;2023-02-08T09:54:02;103872.25;;;0.95;76.57
72921;BME280;61064;51.654;5.476;2023-02-08T09:56:38;103868.94;;;1.06;76.24
72921;BME280;61064;51.654;5.476;2023-02-08T09:59:05;103864.69;;;1.16;76.03
72921;BME280;61064;51.654;5.476;2023-02-08T10:01:33;103870.50;;;1.22;76.23
72921;BME280;61064;51.654;5.476;2023-02-08T10:04:03;103875.81;;;1.33;75.75
72921;BME280;61064;51.654;5.476;2023-02-08T10:06:30;103868.19;;;1.36;76.05
72921;BME280;61064;51.654;5.476;2023-02-08T10:09:04;103877.47;;;1.51;75.57
72921;BME280;61064;51.654;5.476;2023-02-08T10:22:29;103883.03;;;2.22;75.25
72921;BME280;61064;51.654;5.476;2023-02-08T10:25:40;103875.31;;;2.33;75.19
72921;BME280;61064;51.654;5.476;2023-02-08T10:30:56;103881.69;;;2.66;74.96
72921;BME280;61064;51.654;5.476;2023-02-08T10:33:42;103879.31;;;2.79;74.41
72921;BME280;61064;51.654;5.476;2023-02-08T10:36:14;103884.06;;;2.93;74.30
72921;BME280;61064;51.654;5.476;2023-02-08T10:38:40;103877.34;;;2.97;74.34
72921;BME280;61064;51.654;5.476;2023-02-08T10:41:08;103875.75;;;3.09;73.87
72921;BME280;61064;51.654;5.476;2023-02-08T10:43:43;103874.16;;;3.21;73.68
72921;BME280;61064;51.654;5.476;2023-02-08T10:51:54;103865.53;;;3.54;73.69
72921;BME280;61064;51.654;5.476;2023-02-08T10:54:19;103866.94;;;3.70;73.69
72921;BME280;61064;51.654;5.476;2023-02-08T10:57:00;103869.59;;;3.92;72.88
72921;BME280;61064;51.654;5.476;2023-02-08T10:59:38;103863.78;;;4.06;72.73
72921;BME280;61064;51.654;5.476;2023-02-08T11:02:25;103854.19;;;4.18;72.76
72921;BME280;61064;51.654;5.476;2023-02-08T11:05:14;103861.50;;;4.33;72.28
72921;BME280;61064;51.654;5.476;2023-02-08T11:07:41;103854.44;;;4.43;72.30
72921;BME280;61064;51.654;5.476;2023-02-08T11:18:19;103852.81;;;5.00;71.71
72921;BME280;61064;51.654;5.476;2023-02-08T11:20:48;103845.59;;;5.10;71.44
72921;BME280;61064;51.654;5.476;2023-02-08T11:23:35;103844.94;;;5.24;70.27
72921;BME280;61064;51.654;5.476;2023-02-08T11:26:38;103842.19;;;5.34;70.49
72921;BME280;61064;51.654;5.476;2023-02-08T11:31:35;103830.31;;;5.52;70.33
72921;BME280;61064;51.654;5.476;2023-02-08T11:34:03;103820.47;;;5.61;70.01
72921;BME280;61064;51.654;5.476;2023-02-08T11:36:31;103816.09;;;5.73;69.46
72921;BME280;61064;51.654;5.476;2023-02-08T11:38:59;103819.88;;;5.89;69.14
72921;BME280;61064;51.654;5.476;2023-02-08T11:41:25;103797.66;;;5.86;68.86
72921;BME280;61064;51.654;5.476;2023-02-08T11:44:01;103808.56;;;6.03;68.47
72921;BME280;61064;51.654;5.476;2023-02-08T11:46:29;103780.81;;;5.96;68.51
72921;BME280;61064;51.654;5.476;2023-02-08T11:48:56;103777.78;;;6.03;68.45
72921;BME280;61064;51.654;5.476;2023-02-08T11:51:26;103785.97;;;6.19;67.58
72921;BME280;61064;51.654;5.476;2023-02-08T11:53:52;103786.38;;;6.37;67.75
72921;BME280;61064;51.654;5.476;2023-02-08T11:56:29;103790.56;;;6.47;66.82
72921;BME280;61064;51.654;5.476;2023-02-08T12:01:25;103773.41;;;6.53;66.63
72921;BME280;61064;51.654;5.476;2023-02-08T12:03:51;103777.28;;;6.58;65.99
72921;BME280;61064;51.654;5.476;2023-02-08T12:06:21;103769.78;;;6.64;66.41
72921;BME280;61064;51.654;5.476;2023-02-08T12:11:41;103764.75;;;6.94;65.48
72921;BME280;61064;51.654;5.476;2023-02-08T12:22:26;103762.81;;;7.31;64.52
72921;BME280;61064;51.654;5.476;2023-02-08T12:25:13;103745.22;;;7.31;63.65
72921;BME280;61064;51.654;5.476;2023-02-08T12:27:51;103758.25;;;7.41;63.77
72921;BME280;61064;51.654;5.476;2023-02-08T12:30:52;103743.38;;;7.43;63.38
72921;BME280;61064;51.654;5.476;2023-02-08T12:36:17;103744.47;;;7.60;63.30
72921;BME280;61064;51.654;5.476;2023-02-08T12:47:01;103737.91;;;8.09;61.80
72921;BME280;61064;51.654;5.476;2023-02-08T12:49:40;103724.09;;;8.15;61.78
72921;BME280;61064;51.654;5.476;2023-02-08T12:54:56;103713.25;;;8.25;61.20
72921;BME280;61064;51.654;5.476;2023-02-08T12:57:24;103700.06;;;8.26;60.44
72921;BME280;61064;51.654;5.476;2023-02-08T13:00:13;103698.25;;;8.25;59.44
72921;BME280;61064;51.654;5.476;2023-02-08T13:02:45;103687.34;;;8.21;59.41
72921;BME280;61064;51.654;5.476;2023-02-08T13:05:21;103686.00;;;8.27;59.60
72921;BME280;61064;51.654;5.476;2023-02-08T13:07:50;103687.22;;;8.32;58.91
72921;BME280;61064;51.654;5.476;2023-02-08T13:10:38;103658.66;;;8.28;58.85
72921;BME280;61064;51.654;5.476;2023-02-08T13:15:44;103651.09;;;8.34;57.98
72921;BME280;61064;51.654;5.476;2023-02-08T13:18:15;103671.41;;;8.49;57.86
72921;BME280;61064;51.654;5.476;2023-02-08T13:23:37;103658.34;;;8.52;57.54
72921;BME280;61064;51.654;5.476;2023-02-08T13:26:14;103646.81;;;8.51;56.54
72921;BME280;61064;51.654;5.476;2023-02-08T13:28:49;103637.28;;;8.55;57.02
72921;BME280;61064;51.654;5.476;2023-02-08T13:31:20;103643.59;;;8.57;56.28
72921;BME280;61064;51.654;5.476;2023-02-08T13:33:53;103637.94;;;8.51;55.74
72921;BME280;61064;51.654;5.476;2023-02-08T13:36:28;103618.53;;;8.37;55.58
72921;BME280;61064;51.654;5.476;2023-02-08T13:38:55;103650.44;;;8.53;55.26
72921;BME280;61064;51.654;5.476;2023-02-08T13:41:23;103633.53;;;8.51;55.01
72921;BME280;61064;51.654;5.476;2023-02-08T13:44:05;103645.91;;;8.51;54.39
72921;BME280;61064;51.654;5.476;2023-02-08T13:46:48;103626.41;;;8.50;52.39
72921;BME280;61064;51.654;5.476;2023-02-08T13:52:02;103611.31;;;8.49;54.25
72921;BME280;61064;51.654;5.476;2023-02-08T13:54:27;103616.88;;;8.54;53.64
72921;BME280;61064;51.654;5.476;2023-02-08T13:56:54;103611.41;;;8.51;53.21
72921;BME280;61064;51.654;5.476;2023-02-08T13:59:35;103606.34;;;8.55;53.01
72921;BME280;61064;51.654;5.476;2023-02-08T14:04:43;103614.41;;;8.57;52.84
72921;BME280;61064;51.654;5.476;2023-02-08T14:07:26;103605.34;;;8.53;52.13
72921;BME280;61064;51.654;5.476;2023-02-08T14:10:23;103616.59;;;8.49;50.59
72921;BME280;61064;51.654;5.476;2023-02-08T14:12:59;103597.66;;;8.43;51.59
72921;BME280;61064;51.654;5.476;2023-02-08T14:15:30;103577.66;;;8.33;51.72
72921;BME280;61064;51.654;5.476;2023-02-08T14:17:56;103590.25;;;8.38;51.65
72921;BME280;61064;51.654;5.476;2023-02-08T14:20:30;103587.25;;;8.31;50.45
72921;BME280;61064;51.654;5.476;2023-02-08T14:23:00;103600.06;;;8.39;50.97
72921;BME280;61064;51.654;5.476;2023-02-08T14:25:36;103595.47;;;8.36;50.91
72921;BME280;61064;51.654;5.476;2023-02-08T14:28:02;103578.72;;;8.22;51.26
72921;BME280;61064;51.654;5.476;2023-02-08T14:30:34;103583.47;;;8.28;50.78
72921;BME280;61064;51.654;5.476;2023-02-08T14:35:32;103566.66;;;8.13;51.10
72921;BME280;61064;51.654;5.476;2023-02-08T14:43:26;103577.97;;;8.10;50.28
72921;BME280;61064;51.654;5.476;2023-02-08T14:45:53;103576.06;;;8.08;50.75
72921;BME280;61064;51.654;5.476;2023-02-08T14:48:30;103569.53;;;8.03;50.06
72921;BME280;61064;51.654;5.476;2023-02-08T14:58:44;103567.16;;;7.92;49.65
72921;BME280;61064;51.654;5.476;2023-02-08T15:01:16;103560.69;;;7.87;49.46
72921;BME280;61064;51.654;5.476;2023-02-08T15:03:42;103544.13;;;7.77;49.55
72921;BME280;61064;51.654;5.476;2023-02-08T15:06:35;103549.53;;;7.78;49.31
72921;BME280;61064;51.654;5.476;2023-02-08T15:09:22;103546.50;;;7.72;47.21
72921;BME280;61064;51.654;5.476;2023-02-08T15:11:56;103547.31;;;7.71;49.11
72921;BME280;61064;51.654;5.476;2023-02-08T15:14:23;103532.13;;;7.54;49.53